Terminal Aerodrome Forecast
Issued by NWS

Home | Current Version | Previous Version | Text Only | Print | Product List | Glossary On
Versions: 1 2 3 4 5 6 7 8 9 10 11 12 13 14 15 16 17 18
000
FTUS43 KLSX 251100
TAFUIN
TAF
KUIN 251127Z 2512/2612 30009KT P6SM OVC025
     FM251330 29008KT P6SM SCT030
     FM251800 26006KT P6SM SKC
     FM252200 VRB03KT P6SM SCT250
     FM260900 15008KT P6SM OVC100=

USA.gov is the U.S. government's official web portal to all federal, state and local government web resources and services.